createdAt,value
2018-02-17T12:13:21.946Z,36.57
2018-02-17T12:16:23.828Z,36.99
2018-02-17T12:19:25.704Z,36.98
2018-02-17T12:22:27.587Z,36.91
2018-02-17T12:25:29.455Z,36.89
2018-02-17T12:47:06.253Z,68.03
2018-02-17T12:50:08.200Z,69.07
2018-02-17T12:53:10.172Z,72.75
2018-02-17T12:56:12.195Z,73.93
2018-02-17T12:59:14.243Z,73.61
2018-02-17T13:02:16.173Z,76.35
2018-02-17T13:05:18.919Z,76.78
2018-02-17T13:08:20.942Z,76.34
2018-02-17T13:11:22.986Z,77.95
2018-02-17T13:14:24.955Z,78.56
2018-02-17T13:17:26.934Z,78.82
2018-02-17T13:20:28.848Z,78.77
2018-02-17T13:23:31.003Z,79.62
2018-02-17T13:26:33.032Z,79.99
2018-02-17T13:29:35.010Z,81.05
2018-02-17T13:32:36.989Z,79.73
2018-02-17T13:35:38.923Z,79.74
2018-02-17T13:38:40.995Z,78.14
2018-02-17T13:41:43.027Z,80.60
2018-02-17T13:44:45.030Z,79.98
2018-02-17T13:47:47.001Z,79.71
2018-02-17T13:50:48.952Z,79.29
2018-02-17T13:53:50.949Z,78.70
2018-02-17T13:56:52.894Z,80.91
2018-02-17T13:59:54.842Z,79.94
2018-02-17T14:02:57.358Z,77.98
2018-02-17T14:05:59.302Z,79.82
2018-02-17T14:09:01.714Z,79.86
2018-02-17T14:12:03.682Z,79.49
2018-02-17T14:15:05.687Z,79.91
2018-02-17T14:18:07.711Z,79.74
2018-02-17T14:21:09.649Z,78.68
2018-02-17T14:24:11.614Z,78.93
2018-02-17T14:27:13.690Z,78.21
2018-02-17T14:30:15.647Z,77.75
2018-02-17T14:33:17.615Z,78.82
2018-02-17T14:36:19.582Z,79.86
2018-02-17T14:39:21.564Z,79.86
2018-02-17T14:42:23.542Z,79.00
2018-02-17T14:45:25.509Z,78.99
2018-02-17T14:48:27.466Z,79.01
2018-02-17T14:51:29.557Z,78.42
2018-02-17T14:54:31.481Z,79.59
2018-02-17T14:57:33.470Z,80.11
2018-02-17T15:00:35.404Z,79.58
2018-02-17T15:03:37.400Z,81.55
2018-02-17T15:06:39.364Z,81.83
2018-02-17T15:09:41.398Z,80.51
2018-02-17T15:12:43.594Z,80.30
2018-02-17T15:15:45.535Z,81.33
2018-02-17T15:18:47.522Z,81.34
2018-02-17T15:21:49.486Z,80.57
2018-02-17T15:24:51.569Z,81.07
2018-02-17T15:27:53.627Z,81.30
2018-02-17T15:30:55.669Z,80.73
2018-02-17T15:33:57.634Z,80.42
2018-02-17T15:36:59.793Z,80.78
2018-02-17T15:40:01.842Z,80.36
2018-02-17T15:43:03.837Z,79.80
2018-02-17T15:46:05.884Z,80.44
2018-02-17T15:49:07.974Z,79.43
2018-02-17T15:52:09.985Z,79.87
2018-02-17T15:55:12.015Z,78.85
2018-02-17T15:58:13.964Z,80.47
2018-02-17T16:01:16.154Z,81.35
2018-02-17T16:04:18.190Z,81.51
2018-02-17T16:07:20.243Z,81.61
2018-02-17T16:10:22.179Z,81.98
2018-02-17T16:13:24.264Z,82.20
2018-02-17T16:16:26.203Z,82.07
2018-02-17T16:19:28.301Z,81.14
2018-02-17T16:22:30.244Z,81.59
2018-02-17T16:25:32.372Z,80.61
2018-02-17T16:28:34.397Z,80.69
2018-02-17T16:31:36.463Z,81.88
2018-02-17T16:34:38.529Z,82.12
2018-02-17T16:37:40.594Z,82.61
2018-02-17T16:40:42.548Z,82.15
2018-02-17T16:43:44.594Z,81.30
2018-02-17T16:46:46.532Z,80.66
2018-02-17T16:49:48.782Z,80.51
2018-02-17T16:52:50.724Z,81.10
2018-02-17T16:55:52.802Z,79.61
2018-02-17T16:58:54.714Z,79.62
2018-02-17T17:01:56.813Z,79.53
2018-02-17T17:04:58.823Z,78.54
2018-02-17T17:08:00.881Z,79.54
2018-02-17T17:11:02.893Z,78.89
2018-02-17T17:14:04.887Z,76.97
2018-02-17T17:17:06.851Z,78.43
2018-02-17T17:20:09.472Z,78.33
2018-02-17T17:23:11.413Z,77.76
2018-02-17T17:26:13.474Z,77.59
2018-02-17T17:29:15.522Z,78.11
2018-02-17T17:32:17.689Z,78.20
2018-02-17T17:35:19.813Z,77.97
2018-02-17T17:38:21.782Z,78.00
2018-02-17T17:41:23.833Z,77.47
2018-02-17T17:44:25.812Z,77.50
2018-02-17T17:47:27.795Z,77.40
2018-02-17T17:50:29.710Z,77.53
2018-02-17T17:53:31.784Z,77.91
2018-02-17T17:56:33.895Z,77.26
2018-02-17T17:59:35.885Z,77.60
2018-02-17T18:02:37.987Z,77.46
2018-02-17T18:05:40.022Z,77.78
2018-02-17T18:08:41.968Z,77.68
2018-02-17T18:11:44.037Z,78.33
2018-02-17T18:14:46.080Z,78.53
2018-02-17T18:17:48.050Z,78.19
2018-02-17T18:20:49.975Z,78.28
2018-02-17T18:23:52.189Z,77.10
2018-02-17T18:26:54.165Z,77.32
2018-02-17T18:29:56.186Z,78.46
2018-02-17T18:32:58.160Z,77.91
2018-02-17T18:36:00.316Z,77.92
2018-02-17T18:39:02.330Z,77.38
2018-02-17T18:42:04.497Z,78.10
2018-02-17T18:45:06.450Z,78.32
2018-02-17T18:48:08.596Z,78.60
2018-02-17T18:51:10.592Z,77.91
2018-02-17T18:54:12.699Z,77.66
2018-02-17T18:57:14.722Z,78.10
2018-02-17T19:00:16.689Z,77.74
2018-02-17T19:03:18.703Z,78.09
2018-02-17T19:06:20.662Z,78.10
2018-02-17T19:09:22.814Z,78.23
2018-02-17T19:12:24.779Z,78.32
2018-02-17T19:15:26.736Z,77.88
2018-02-17T19:18:28.802Z,78.25
2018-02-17T19:21:30.774Z,78.45
2018-02-17T19:24:32.861Z,78.03
2018-02-17T19:27:34.906Z,77.83
2018-02-17T19:30:36.879Z,78.16
2018-02-17T19:33:39.183Z,78.16
2018-02-17T19:36:41.237Z,78.01
2018-02-17T19:39:43.172Z,78.17
2018-02-17T19:42:45.140Z,78.04
2018-02-17T19:45:47.222Z,78.19
2018-02-17T19:48:49.281Z,78.01
2018-02-17T19:51:51.471Z,78.20
2018-02-17T19:54:53.412Z,78.06
2018-02-17T19:57:55.413Z,78.15
2018-02-17T20:00:57.360Z,78.32
2018-02-17T20:04:00.357Z,78.56
2018-02-17T20:07:02.366Z,78.60
2018-02-17T20:10:04.537Z,78.83
2018-02-17T20:13:06.648Z,78.48
2018-02-17T20:16:08.694Z,78.57
2018-02-17T20:19:10.696Z,78.65
2018-02-17T20:22:12.692Z,78.18
2018-02-17T20:25:14.746Z,78.30
2018-02-17T20:28:16.701Z,78.69
2018-02-17T20:31:18.775Z,78.58
2018-02-17T20:34:20.714Z,79.33
2018-02-17T20:37:22.667Z,79.90
2018-02-17T20:40:24.623Z,79.15
2018-02-17T20:43:26.741Z,79.71
2018-02-17T20:46:28.785Z,79.12
2018-02-17T20:49:30.704Z,79.17
2018-02-17T20:52:32.870Z,79.55
2018-02-17T20:55:34.899Z,79.54
2018-02-17T20:58:36.938Z,79.92
2018-02-17T21:01:39.022Z,79.10
2018-02-17T21:04:40.995Z,79.31
2018-02-17T21:07:42.968Z,79.77
2018-02-17T21:10:45.002Z,79.39
2018-02-17T21:13:47.017Z,79.30
2018-02-17T21:16:48.973Z,79.52
2018-02-17T21:19:51.032Z,78.83
2018-02-17T21:22:53.114Z,79.25
2018-02-17T21:25:55.191Z,79.61
2018-02-17T21:28:57.200Z,79.39
2018-02-17T21:31:59.231Z,79.03
2018-02-17T21:35:01.204Z,79.45
2018-02-17T21:38:03.148Z,79.31
2018-02-17T21:41:05.132Z,80.09
2018-02-17T21:44:07.062Z,79.81
2018-02-17T21:47:09.061Z,80.08
2018-02-17T21:50:11.033Z,79.97
2018-02-17T21:53:13.029Z,79.77
2018-02-17T21:56:15.056Z,79.30
2018-02-17T21:59:17.014Z,79.00
2018-02-17T22:02:19.266Z,79.02
2018-02-17T22:05:21.296Z,79.12
2018-02-17T22:08:23.219Z,78.87
2018-02-17T22:11:25.185Z,78.47
2018-02-17T22:14:27.177Z,78.63
2018-02-17T22:17:29.107Z,78.88
2018-02-17T22:20:31.042Z,78.79
2018-02-17T22:23:33.267Z,78.79
2018-02-17T22:26:35.235Z,78.64
2018-02-17T22:29:37.524Z,78.71
2018-02-17T22:32:39.691Z,78.70
2018-02-17T22:35:43.025Z,78.82
2018-02-17T22:38:45.358Z,78.57
2018-02-17T22:41:47.316Z,79.06
2018-02-17T22:44:49.250Z,79.17
2018-02-17T22:47:51.260Z,78.76
2018-02-17T22:50:53.207Z,78.98
2018-02-17T22:53:55.279Z,79.34
2018-02-17T22:56:57.267Z,78.95
2018-02-17T22:59:59.214Z,78.38
2018-02-17T23:03:01.187Z,78.94
2018-02-17T23:06:03.353Z,79.23
2018-02-17T23:09:05.322Z,79.48
2018-02-17T23:12:07.244Z,79.60
2018-02-17T23:15:09.354Z,79.61
2018-02-17T23:18:11.362Z,78.32
2018-02-17T23:21:13.417Z,78.10
2018-02-17T23:24:15.448Z,78.43
2018-02-17T23:27:17.413Z,79.80
2018-02-17T23:30:19.489Z,79.22
2018-02-17T23:33:21.452Z,78.99
2018-02-17T23:36:23.422Z,79.08
2018-02-17T23:39:25.390Z,79.00
2018-02-17T23:42:27.355Z,78.35
2018-02-17T23:45:29.344Z,78.00
2018-02-17T23:48:31.314Z,78.85
2018-02-17T23:51:33.268Z,78.22
2018-02-17T23:54:35.212Z,78.76
2018-02-17T23:57:37.199Z,78.17
